createdAt,value
2018-05-12T00:01:30.351Z,12.58
2018-05-12T00:03:57.922Z,12.45
2018-05-12T00:06:25.563Z,12.51
2018-05-12T00:08:53.232Z,12.53
2018-05-12T00:11:20.927Z,12.51
2018-05-12T00:13:48.597Z,12.56
2018-05-12T00:16:16.236Z,12.44
2018-05-12T00:18:43.913Z,12.56
2018-05-12T00:21:11.520Z,12.55
2018-05-12T00:23:39.210Z,12.50
2018-05-12T00:26:06.937Z,12.51
2018-05-12T00:28:34.654Z,12.33
2018-05-12T00:31:02.310Z,12.22
2018-05-12T00:33:29.975Z,12.28
2018-05-12T00:35:57.570Z,12.00
2018-05-12T00:38:25.249Z,12.01
2018-05-12T00:40:52.930Z,12.11
2018-05-12T00:43:20.539Z,12.14
2018-05-12T00:45:48.199Z,12.05
2018-05-12T00:48:15.808Z,12.11
2018-05-12T00:50:43.445Z,12.22
2018-05-12T00:53:11.077Z,12.25
2018-05-12T00:55:38.775Z,12.10
2018-05-12T00:58:06.406Z,11.90
2018-05-12T01:00:34.103Z,11.89
2018-05-12T01:03:01.757Z,11.79
2018-05-12T01:05:29.439Z,11.74
2018-05-12T01:07:58.008Z,11.81
2018-05-12T01:10:25.661Z,11.75
2018-05-12T01:12:53.409Z,11.86
2018-05-12T01:15:21.041Z,11.76
2018-05-12T01:17:48.679Z,11.77
2018-05-12T01:20:16.459Z,11.65
2018-05-12T01:22:44.212Z,11.57
2018-05-12T01:25:11.814Z,11.59
2018-05-12T01:27:39.454Z,11.61
2018-05-12T01:30:07.055Z,11.65
2018-05-12T01:32:34.694Z,11.61
2018-05-12T01:35:02.550Z,11.52
2018-05-12T01:37:30.186Z,11.46
2018-05-12T01:39:57.818Z,11.46
2018-05-12T01:42:25.409Z,11.42
2018-05-12T01:44:53.125Z,11.48
2018-05-12T01:47:20.861Z,11.48
2018-05-12T01:49:48.455Z,11.38
2018-05-12T01:52:16.086Z,11.28
2018-05-12T01:54:43.679Z,11.34
2018-05-12T01:57:11.344Z,11.17
2018-05-12T01:59:38.931Z,11.20
2018-05-12T02:02:06.611Z,11.24
2018-05-12T02:04:34.238Z,11.27
2018-05-12T02:07:01.882Z,11.20
2018-05-12T02:09:29.514Z,11.13
2018-05-12T02:11:57.198Z,11.14
2018-05-12T02:14:24.873Z,11.21
2018-05-12T02:16:52.643Z,11.30
2018-05-12T02:19:20.298Z,11.43
2018-05-12T02:21:47.911Z,11.42
2018-05-12T02:24:15.522Z,11.41
2018-05-12T02:26:43.180Z,11.42
2018-05-12T02:29:10.829Z,11.27
2018-05-12T02:31:38.433Z,11.21
2018-05-12T02:34:06.116Z,11.29
2018-05-12T02:36:33.729Z,11.28
2018-05-12T02:39:01.313Z,11.17
2018-05-12T02:41:28.962Z,11.05
2018-05-12T02:43:56.611Z,11.01
2018-05-12T02:46:24.239Z,11.14
2018-05-12T02:48:51.912Z,11.19
2018-05-12T02:51:19.507Z,11.13
2018-05-12T02:53:47.161Z,11.16
2018-05-12T02:56:14.786Z,11.16
2018-05-12T02:58:42.448Z,11.14
2018-05-12T03:01:10.071Z,11.15
2018-05-12T03:03:37.852Z,11.12
2018-05-12T03:06:05.699Z,11.12
2018-05-12T03:08:33.325Z,11.21
2018-05-12T03:11:01.115Z,11.11
2018-05-12T03:13:28.748Z,11.13
2018-05-12T03:15:56.391Z,11.09
2018-05-12T03:18:24.045Z,11.04
2018-05-12T03:20:51.704Z,11.01
2018-05-12T03:23:19.392Z,10.99
2018-05-12T03:25:47.040Z,11.09
2018-05-12T03:28:14.649Z,11.14
2018-05-12T03:30:42.328Z,11.06
2018-05-12T03:33:09.927Z,11.09
2018-05-12T03:35:37.586Z,11.03
2018-05-12T03:38:05.246Z,11.03
2018-05-12T03:40:33.043Z,11.07
2018-05-12T03:43:00.697Z,10.96
2018-05-12T03:45:28.442Z,10.99
2018-05-12T03:47:56.068Z,10.92
2018-05-12T03:50:23.736Z,11.05
2018-05-12T03:52:51.357Z,11.09
2018-05-12T03:55:19.075Z,11.11
2018-05-12T03:57:46.690Z,11.14
2018-05-12T04:00:14.377Z,11.14
2018-05-12T04:02:41.991Z,11.20
2018-05-12T04:05:21.475Z,11.25
2018-05-12T04:08:01.102Z,11.38
2018-05-12T04:10:40.614Z,11.24
2018-05-12T04:13:08.271Z,11.22
2018-05-12T04:15:36.120Z,11.21
2018-05-12T04:18:03.816Z,11.05
2018-05-12T04:20:31.488Z,11.03
2018-05-12T04:22:59.143Z,10.93
2018-05-12T04:25:26.787Z,10.99
2018-05-12T04:27:54.440Z,11.02
2018-05-12T04:30:22.104Z,11.08
2018-05-12T04:32:49.704Z,11.07
2018-05-12T04:35:17.353Z,11.07
2018-05-12T04:37:45.085Z,11.02
2018-05-12T04:40:12.682Z,11.08
2018-05-12T04:42:40.336Z,11.22
2018-05-12T04:45:07.972Z,11.29
2018-05-12T04:47:35.636Z,11.32
2018-05-12T04:50:03.314Z,11.32
2018-05-12T04:52:30.966Z,11.46
2018-05-12T04:54:58.602Z,11.74
2018-05-12T04:57:26.271Z,11.76
2018-05-12T04:59:53.890Z,11.93
2018-05-12T05:02:21.586Z,12.18
2018-05-12T05:04:49.190Z,12.55
2018-05-12T05:07:16.881Z,12.83
2018-05-12T05:09:44.513Z,13.05
2018-05-12T05:12:12.177Z,13.22
2018-05-12T05:14:39.902Z,13.45
2018-05-12T05:17:07.503Z,13.62
2018-05-12T05:19:35.199Z,13.76
2018-05-12T05:22:02.869Z,13.87
2018-05-12T05:24:30.578Z,13.85
2018-05-12T05:26:58.405Z,14.07
2018-05-12T05:29:26.348Z,14.36
2018-05-12T05:31:54.042Z,14.45
2018-05-12T05:34:21.758Z,14.66
2018-05-12T05:36:49.457Z,14.55
2018-05-12T05:39:17.042Z,14.26
2018-05-12T05:41:44.912Z,14.58
2018-05-12T05:44:12.879Z,14.76
2018-05-12T05:46:40.588Z,15.00
2018-05-12T05:49:08.402Z,14.99
2018-05-12T05:51:36.045Z,15.17
2018-05-12T05:54:03.691Z,15.37
2018-05-12T05:56:31.370Z,15.73
2018-05-12T05:58:59.011Z,16.01
2018-05-12T06:01:26.669Z,16.02
2018-05-12T06:03:54.316Z,15.99
2018-05-12T06:06:21.993Z,15.64
2018-05-12T06:08:49.598Z,15.67
2018-05-12T06:11:17.260Z,14.99
2018-05-12T06:13:44.886Z,15.20
2018-05-12T06:16:12.522Z,15.96
2018-05-12T06:18:40.197Z,15.70
2018-05-12T06:21:07.898Z,16.15
2018-05-12T06:23:35.487Z,16.14
2018-05-12T06:26:03.154Z,16.16
2018-05-12T06:28:30.824Z,15.89
2018-05-12T06:30:58.921Z,16.06
2018-05-12T06:33:26.687Z,16.23
2018-05-12T06:35:54.390Z,16.25
2018-05-12T06:38:22.054Z,16.37
2018-05-12T06:40:49.805Z,16.80
2018-05-12T06:43:17.426Z,16.52
2018-05-12T06:45:45.119Z,16.99
2018-05-12T06:48:12.785Z,17.02
2018-05-12T06:50:40.483Z,17.10
2018-05-12T06:53:08.153Z,17.39
2018-05-12T06:55:35.864Z,17.54
2018-05-12T06:58:03.525Z,18.11
2018-05-12T07:00:31.215Z,17.94
2018-05-12T07:02:58.867Z,17.87
2018-05-12T07:05:26.498Z,18.55
2018-05-12T07:07:54.130Z,19.09
2018-05-12T07:10:21.814Z,19.11
2018-05-12T07:12:49.416Z,18.87
2018-05-12T07:15:17.102Z,18.48
2018-05-12T07:17:44.767Z,19.11
2018-05-12T07:20:12.522Z,19.17
2018-05-12T07:22:40.166Z,19.43
2018-05-12T07:25:07.829Z,18.91
2018-05-12T07:27:35.438Z,19.04
2018-05-12T07:30:03.100Z,19.22
2018-05-12T07:32:30.740Z,18.62
2018-05-12T07:34:58.362Z,19.31
2018-05-12T07:37:26.000Z,19.13
2018-05-12T07:39:53.598Z,19.39
2018-05-12T07:42:21.449Z,19.63
2018-05-12T07:44:49.103Z,19.36
2018-05-12T07:47:16.739Z,19.63
2018-05-12T07:49:44.423Z,19.78
2018-05-12T07:52:12.069Z,19.77
2018-05-12T07:54:39.810Z,19.67
2018-05-12T07:57:07.483Z,19.48
2018-05-12T07:59:35.156Z,19.67
2018-05-12T08:02:02.828Z,19.87
2018-05-12T08:04:30.471Z,20.10
2018-05-12T08:06:58.080Z,20.26
2018-05-12T08:09:25.769Z,20.51
2018-05-12T08:11:53.376Z,20.71
2018-05-12T08:14:21.038Z,20.56
2018-05-12T08:16:48.855Z,20.70
2018-05-12T08:19:16.569Z,20.74
2018-05-12T08:21:44.270Z,20.84
2018-05-12T08:24:11.969Z,20.26
2018-05-12T08:26:39.623Z,20.87
2018-05-12T08:29:07.278Z,20.87
2018-05-12T08:31:34.899Z,21.36
2018-05-12T08:34:02.607Z,21.39
2018-05-12T08:36:30.245Z,21.96
2018-05-12T08:38:57.912Z,21.16
2018-05-12T08:41:25.575Z,21.06
2018-05-12T08:43:53.216Z,21.21
2018-05-12T08:46:20.844Z,21.48
2018-05-12T08:48:48.546Z,22.07
2018-05-12T08:51:16.219Z,22.69
2018-05-12T08:53:43.974Z,22.40
2018-05-12T08:56:11.645Z,22.49
2018-05-12T08:58:39.274Z,22.47
2018-05-12T09:01:07.541Z,22.60
2018-05-12T09:03:35.190Z,22.52
2018-05-12T09:06:02.858Z,22.43
2018-05-12T09:08:30.463Z,23.09
2018-05-12T09:10:58.899Z,23.42
2018-05-12T09:13:26.504Z,22.93
2018-05-12T09:15:54.177Z,23.50
2018-05-12T09:18:21.848Z,23.58
2018-05-12T09:20:49.496Z,23.44
2018-05-12T09:23:17.161Z,23.42
2018-05-12T09:25:45.076Z,23.34
2018-05-12T09:28:12.801Z,23.06
2018-05-12T09:30:40.461Z,23.37
2018-05-12T09:33:08.198Z,23.37
2018-05-12T09:35:35.842Z,22.81
2018-05-12T09:38:03.513Z,23.03
2018-05-12T09:40:31.292Z,22.76
2018-05-12T09:42:58.966Z,23.18
2018-05-12T09:45:26.817Z,23.39
2018-05-12T09:47:54.670Z,23.31
2018-05-12T09:50:22.442Z,22.82
2018-05-12T09:52:50.498Z,23.41
2018-05-12T09:55:18.772Z,23.51
2018-05-12T09:57:46.413Z,23.86
2018-05-12T10:00:16.740Z,23.79
2018-05-12T10:02:44.405Z,23.99
2018-05-12T10:05:12.104Z,24.24
2018-05-12T10:07:39.805Z,24.64
2018-05-12T10:10:07.461Z,24.49
2018-05-12T10:12:35.154Z,24.49
2018-05-12T10:15:02.787Z,24.39
2018-05-12T10:17:30.486Z,24.30
2018-05-12T10:19:58.286Z,24.27
2018-05-12T10:22:25.996Z,24.81
2018-05-12T10:24:53.627Z,23.96
2018-05-12T10:27:22.914Z,24.08
2018-05-12T10:29:51.405Z,24.25
2018-05-12T10:32:19.272Z,24.14
2018-05-12T10:34:47.236Z,23.93
2018-05-12T10:37:15.112Z,24.15
2018-05-12T10:39:43.062Z,24.54
2018-05-12T10:42:11.124Z,24.79
2018-05-12T10:44:38.792Z,25.30
2018-05-12T10:47:06.514Z,25.04
2018-05-12T10:49:34.261Z,25.68
2018-05-12T10:52:01.925Z,25.98
2018-05-12T10:54:29.698Z,25.55
2018-05-12T10:56:57.355Z,25.45
2018-05-12T10:59:25.356Z,25.33
2018-05-12T11:01:53.552Z,25.41
2018-05-12T11:04:22.118Z,25.32
2018-05-12T11:06:50.954Z,24.79
2018-05-12T11:09:18.661Z,25.10
2018-05-12T11:11:46.357Z,25.46
2018-05-12T11:14:14.028Z,25.60
2018-05-12T11:16:45.515Z,25.31
2018-05-12T11:19:13.174Z,25.24
2018-05-12T11:21:40.957Z,25.48
2018-05-12T11:24:08.650Z,24.98
2018-05-12T11:26:36.439Z,24.48
2018-05-12T11:29:04.457Z,25.23
2018-05-12T11:31:32.169Z,24.90
2018-05-12T11:34:00.950Z,25.31
2018-05-12T11:36:29.032Z,25.76
2018-05-12T11:38:56.787Z,25.80
2018-05-12T11:41:24.451Z,25.78
2018-05-12T11:43:52.933Z,25.33
2018-05-12T11:46:21.027Z,25.55
2018-05-12T11:48:48.847Z,25.55
2018-05-12T11:51:16.464Z,26.18
2018-05-12T11:53:44.508Z,26.24
2018-05-12T11:56:12.393Z,26.15
2018-05-12T11:58:40.447Z,25.62
2018-05-12T12:01:08.112Z,25.62
2018-05-12T12:03:36.563Z,24.92
2018-05-12T12:06:04.741Z,24.68
2018-05-12T12:08:32.358Z,24.23
2018-05-12T12:11:00.088Z,23.92
2018-05-12T12:13:27.964Z,23.82
2018-05-12T12:15:55.933Z,23.84
2018-05-12T12:18:23.681Z,23.98
2018-05-12T12:20:52.549Z,23.53
2018-05-12T12:23:20.333Z,23.56
2018-05-12T12:25:48.568Z,23.70
2018-05-12T12:28:16.304Z,23.63
2018-05-12T12:30:43.970Z,23.70
2018-05-12T12:33:11.672Z,23.83
2018-05-12T12:35:39.292Z,23.45
2018-05-12T12:38:06.976Z,23.71
2018-05-12T12:40:34.631Z,23.73
2018-05-12T12:43:02.353Z,23.87
2018-05-12T12:45:30.021Z,23.96
2018-05-12T12:47:57.697Z,23.83
2018-05-12T12:50:25.764Z,23.98
2018-05-12T12:52:53.467Z,24.33
2018-05-12T12:55:21.156Z,24.39
2018-05-12T12:57:48.768Z,23.68
2018-05-12T13:00:16.460Z,24.34
2018-05-12T13:02:44.179Z,24.20
2018-05-12T13:05:11.808Z,24.30
2018-05-12T13:07:39.497Z,24.31
2018-05-12T13:10:07.256Z,24.44
2018-05-12T13:12:35.028Z,24.17
2018-05-12T13:15:02.666Z,24.29
2018-05-12T13:17:30.375Z,24.12
2018-05-12T13:19:58.078Z,24.18
2018-05-12T13:22:25.747Z,23.92
2018-05-12T13:24:53.491Z,23.80
2018-05-12T13:27:21.286Z,23.91
2018-05-12T13:29:48.963Z,23.83
2018-05-12T13:32:16.619Z,23.94
2018-05-12T13:34:44.285Z,23.68
2018-05-12T13:37:12.110Z,23.88
2018-05-12T13:39:39.756Z,23.87
2018-05-12T13:42:07.481Z,23.60
2018-05-12T13:44:35.106Z,23.76
2018-05-12T13:47:02.843Z,23.34
2018-05-12T13:49:31.090Z,23.47
2018-05-12T13:51:59.485Z,23.67
2018-05-12T13:54:27.109Z,23.65
2018-05-12T13:56:55.085Z,23.49
2018-05-12T13:59:23.483Z,23.60
2018-05-12T14:01:51.203Z,23.60
2018-05-12T14:04:19.616Z,23.57
2018-05-12T14:06:47.288Z,23.32
2018-05-12T14:09:14.948Z,23.43
2018-05-12T14:11:42.574Z,23.38
2018-05-12T14:14:10.221Z,23.19
2018-05-12T14:16:37.873Z,23.33
2018-05-12T14:19:05.564Z,23.42
2018-05-12T14:21:33.248Z,23.21
2018-05-12T14:24:00.859Z,23.37
2018-05-12T14:26:28.487Z,23.62
2018-05-12T14:28:56.131Z,23.85
2018-05-12T14:31:23.837Z,24.01
2018-05-12T14:33:51.504Z,24.09
2018-05-12T14:36:19.445Z,24.33
2018-05-12T14:38:47.319Z,24.36
2018-05-12T14:41:14.979Z,24.62
2018-05-12T14:43:42.679Z,24.68
2018-05-12T14:46:10.328Z,24.53
2018-05-12T14:48:37.992Z,24.60
2018-05-12T14:51:05.692Z,24.60
2018-05-12T14:53:33.341Z,24.56
2018-05-12T14:56:01.060Z,24.00
2018-05-12T14:58:28.709Z,23.88
2018-05-12T15:00:56.383Z,23.90
2018-05-12T15:03:24.030Z,23.83
2018-05-12T15:05:51.697Z,23.82
2018-05-12T15:08:19.397Z,23.83
2018-05-12T15:10:47.087Z,24.07
2018-05-12T15:13:14.784Z,23.70
2018-05-12T15:15:42.851Z,23.44
2018-05-12T15:18:10.842Z,23.54
2018-05-12T15:20:38.512Z,23.75
2018-05-12T15:23:06.895Z,23.49
2018-05-12T15:25:34.729Z,23.75
2018-05-12T15:28:02.438Z,23.62
2018-05-12T15:30:30.147Z,23.61
2018-05-12T15:32:58.643Z,23.46
2018-05-12T15:35:26.624Z,22.83
2018-05-12T15:37:55.219Z,22.22
2018-05-12T15:40:23.927Z,21.79
2018-05-12T15:42:51.597Z,21.98
2018-05-12T15:45:19.258Z,22.11
2018-05-12T15:47:46.963Z,21.62
2018-05-12T15:50:14.695Z,21.74
2018-05-12T15:52:43.131Z,21.73
2018-05-12T15:55:10.893Z,21.06
2018-05-12T15:57:38.707Z,21.10
2018-05-12T16:00:06.445Z,21.30
2018-05-12T16:02:34.178Z,21.05
2018-05-12T16:05:01.881Z,20.72
2018-05-12T16:07:30.688Z,20.70
2018-05-12T16:09:58.386Z,20.59
2018-05-12T16:12:26.110Z,20.90
2018-05-12T16:14:53.835Z,21.18
2018-05-12T16:17:21.559Z,20.92
2018-05-12T16:19:49.271Z,21.14
2018-05-12T16:22:16.884Z,21.40
2018-05-12T16:24:44.497Z,21.48
2018-05-12T16:27:12.215Z,21.50
2018-05-12T16:29:39.869Z,21.55
2018-05-12T16:32:07.570Z,21.40
2018-05-12T16:34:35.202Z,21.39
2018-05-12T16:37:02.868Z,21.49
2018-05-12T16:39:30.650Z,21.48
2018-05-12T16:41:58.308Z,21.44
2018-05-12T16:44:26.001Z,21.53
2018-05-12T16:46:54.790Z,21.55
2018-05-12T16:49:22.736Z,21.51
2018-05-12T16:51:50.422Z,21.28
2018-05-12T16:54:18.173Z,21.44
2018-05-12T16:56:45.872Z,21.21
2018-05-12T16:59:13.615Z,21.03
2018-05-12T17:01:41.293Z,20.99
2018-05-12T17:04:09.119Z,20.90
2018-05-12T17:06:37.345Z,20.46
2018-05-12T17:09:05.815Z,20.66
2018-05-12T17:11:33.444Z,20.60
2018-05-12T17:14:01.172Z,20.23
2018-05-12T17:16:28.901Z,20.29
2018-05-12T17:18:56.636Z,19.98
2018-05-12T17:21:24.412Z,20.01
2018-05-12T17:23:52.537Z,20.17
2018-05-12T17:26:20.347Z,20.01
2018-05-12T17:28:48.490Z,20.14
2018-05-12T17:31:16.156Z,19.60
2018-05-12T17:33:44.244Z,19.51
2018-05-12T17:36:12.311Z,19.47
2018-05-12T17:38:40.899Z,19.60
2018-05-12T17:41:08.589Z,19.46
2018-05-12T17:43:36.258Z,19.62
2018-05-12T17:46:04.012Z,19.81
2018-05-12T17:48:31.695Z,19.75
2018-05-12T17:50:59.437Z,19.53
2018-05-12T17:53:27.269Z,19.24
2018-05-12T17:55:55.074Z,19.23
2018-05-12T17:58:22.745Z,19.23
2018-05-12T18:00:51.231Z,19.06
2018-05-12T18:03:19.019Z,18.94
2018-05-12T18:05:46.867Z,19.10
2018-05-12T18:08:14.703Z,18.76
2018-05-12T18:10:42.677Z,18.69
2018-05-12T18:13:11.168Z,18.93
2018-05-12T18:15:40.375Z,18.73
2018-05-12T18:18:08.152Z,18.72
2018-05-12T18:20:35.842Z,18.51
2018-05-12T18:23:03.668Z,18.32
2018-05-12T18:25:31.527Z,18.33
2018-05-12T18:27:59.230Z,18.27
2018-05-12T18:30:26.899Z,18.13
2018-05-12T18:32:54.561Z,17.92
2018-05-12T18:35:22.523Z,17.77
2018-05-12T18:37:50.204Z,17.71
2018-05-12T18:40:18.027Z,17.77
2018-05-12T18:42:45.747Z,17.72
2018-05-12T18:45:13.438Z,17.65
2018-05-12T18:47:41.149Z,17.66
2018-05-12T18:50:08.948Z,17.78
2018-05-12T18:52:36.825Z,17.75
2018-05-12T18:55:04.506Z,17.62
2018-05-12T18:57:32.150Z,17.67
2018-05-12T19:00:00.005Z,17.57
2018-05-12T19:02:27.620Z,17.55
2018-05-12T19:04:55.418Z,17.54
2018-05-12T19:07:23.789Z,17.38
2018-05-12T19:09:51.497Z,17.45
2018-05-12T19:12:19.156Z,17.25
2018-05-12T19:14:46.874Z,16.96
2018-05-12T19:17:14.621Z,16.86
2018-05-12T19:19:42.266Z,16.86
2018-05-12T19:22:10.943Z,16.79
2018-05-12T19:24:38.779Z,16.81
2018-05-12T19:27:06.477Z,16.55
2018-05-12T19:29:34.181Z,16.60
2018-05-12T19:32:01.878Z,16.60
2018-05-12T19:34:29.595Z,16.53
2018-05-12T19:36:57.338Z,16.29
2018-05-12T19:39:25.003Z,16.26
2018-05-12T19:41:52.805Z,16.36
2018-05-12T19:44:21.576Z,16.47
2018-05-12T19:46:49.291Z,16.42
2018-05-12T19:49:16.900Z,16.36
2018-05-12T19:51:44.652Z,16.32
2018-05-12T19:54:12.309Z,16.31
2018-05-12T19:56:40.044Z,16.14
2018-05-12T19:59:07.687Z,16.15
2018-05-12T20:01:35.385Z,16.38
2018-05-12T20:04:03.105Z,16.20
2018-05-12T20:06:30.791Z,16.25
2018-05-12T20:08:58.416Z,16.12
2018-05-12T20:11:26.094Z,16.02
2018-05-12T20:13:53.696Z,15.90
2018-05-12T20:16:21.370Z,16.12
2018-05-12T20:18:48.988Z,15.98
2018-05-12T20:21:16.725Z,15.70
2018-05-12T20:23:44.400Z,15.58
2018-05-12T20:26:12.049Z,15.41
2018-05-12T20:28:39.794Z,15.40
2018-05-12T20:31:07.492Z,15.43
2018-05-12T20:33:35.173Z,15.29
2018-05-12T20:36:02.808Z,15.36
2018-05-12T20:38:30.463Z,15.42
2018-05-12T20:40:58.104Z,15.37
2018-05-12T20:43:25.769Z,15.48
2018-05-12T20:45:53.415Z,15.19
2018-05-12T20:48:21.095Z,15.20
2018-05-12T20:50:48.850Z,15.17
2018-05-12T20:53:16.498Z,15.19
2018-05-12T20:55:44.198Z,15.29
2018-05-12T20:58:11.807Z,15.35
2018-05-12T21:00:39.506Z,15.41
2018-05-12T21:03:07.184Z,15.29
2018-05-12T21:05:34.902Z,15.20
2018-05-12T21:08:02.569Z,15.26
2018-05-12T21:10:30.223Z,15.05
2018-05-12T21:12:57.904Z,14.98
2018-05-12T21:15:25.588Z,14.81
2018-05-12T21:17:53.292Z,14.86
2018-05-12T21:20:20.983Z,14.79
2018-05-12T21:22:48.663Z,14.78
2018-05-12T21:25:16.290Z,14.72
2018-05-12T21:27:43.932Z,14.71
2018-05-12T21:30:11.722Z,14.73
2018-05-12T21:32:39.413Z,14.66
2018-05-12T21:35:07.097Z,14.67
2018-05-12T21:37:34.714Z,14.49
2018-05-12T21:40:02.429Z,14.32
2018-05-12T21:42:30.033Z,14.28
2018-05-12T21:44:57.747Z,14.38
2018-05-12T21:47:25.397Z,14.46
2018-05-12T21:49:53.039Z,14.30
2018-05-12T21:52:20.657Z,14.27
2018-05-12T21:54:48.298Z,14.19
2018-05-12T21:57:15.952Z,14.36
2018-05-12T21:59:43.623Z,14.16
2018-05-12T22:02:11.295Z,14.20
2018-05-12T22:04:38.911Z,14.01
2018-05-12T22:07:06.649Z,14.13
2018-05-12T22:09:34.306Z,14.12
2018-05-12T22:12:01.970Z,14.14
2018-05-12T22:14:29.696Z,14.16
2018-05-12T22:16:57.271Z,13.98
2018-05-12T22:19:24.963Z,14.04
2018-05-12T22:21:52.647Z,13.85
2018-05-12T22:24:20.316Z,13.90
2018-05-12T22:26:47.975Z,13.84
2018-05-12T22:29:15.676Z,13.75
2018-05-12T22:31:43.320Z,13.67
2018-05-12T22:34:11.037Z,13.68
2018-05-12T22:36:38.634Z,13.78
2018-05-12T22:39:06.332Z,13.76
2018-05-12T22:41:33.940Z,13.66
2018-05-12T22:44:01.600Z,13.53
2018-05-12T22:46:29.305Z,13.61
2018-05-12T22:48:57.017Z,13.62
2018-05-12T22:51:24.634Z,13.42
2018-05-12T22:53:52.272Z,13.46
2018-05-12T22:56:19.860Z,13.33
2018-05-12T22:58:47.513Z,13.41
2018-05-12T23:01:15.185Z,13.48
2018-05-12T23:03:42.803Z,13.30
2018-05-12T23:06:10.444Z,13.46
2018-05-12T23:08:38.109Z,13.23
2018-05-12T23:11:05.778Z,13.17
2018-05-12T23:13:33.480Z,13.23
2018-05-12T23:16:01.219Z,13.14
2018-05-12T23:18:28.968Z,13.09
2018-05-12T23:20:56.566Z,12.78
2018-05-12T23:23:24.253Z,12.95
2018-05-12T23:25:51.875Z,12.99
2018-05-12T23:28:19.538Z,12.90
2018-05-12T23:30:47.220Z,12.98
2018-05-12T23:33:14.939Z,12.93
2018-05-12T23:35:42.561Z,12.86
2018-05-12T23:38:10.205Z,12.92
2018-05-12T23:40:39.125Z,12.75
2018-05-12T23:43:06.739Z,12.60
2018-05-12T23:45:34.377Z,12.72
2018-05-12T23:48:01.975Z,12.50
2018-05-12T23:50:29.633Z,12.50
2018-05-12T23:52:57.291Z,12.58
2018-05-12T23:55:24.920Z,12.62
2018-05-12T23:57:52.563Z,12.56
